This is the latest recevied weather packets stored in our database for station/object VK4AB-13. If no packets are shown the sender has not sent any weather packets the latest 1 day(s).
| Time | Temp. | Humidity | Pressure | Rain* | Wind** | Luminosity | Snow |
|---|---|---|---|---|---|---|---|
| 1778045925 | 25° C | 68% | 1014.8 hPa | 0 mm | 2.24 m/s, 121° | 93 W/m² | - |
| 1778045625 | 25° C | 67% | 1014.8 hPa | 0 mm | 1.79 m/s, 111° | 128 W/m² | - |
| 1778045325 | 25.56° C | 67% | 1014.7 hPa | 0 mm | 1.79 m/s, 105° | 135 W/m² | - |
| 1778045025 | 25.56° C | 68% | 1014.7 hPa | 0 mm | 1.34 m/s, 93° | 188 W/m² | - |
| 1778044725 | 26.11° C | 67% | 1014.7 hPa | 0 mm | 1.34 m/s, 69° | 188 W/m² | - |
| 1778044425 | 25.56° C | 68% | 1014.7 hPa | 0 mm | 1.79 m/s, 130° | 517 W/m² | - |
| 1778044182 | 25.56° C | 69% | 1014.7 hPa | 0 mm | 1.34 m/s, 78° | 466 W/m² | - |
| 1778044125 | 25.56° C | 69% | 1014.7 hPa | 0 mm | 1.34 m/s, 78° | 466 W/m² | - |
| 1778043825 | 25.56° C | 69% | 1014.7 hPa | 0 mm | 1.34 m/s, 49° | 376 W/m² | - |
| 1778043525 | 25.56° C | 69% | 1014.8 hPa | 0 mm | 1.79 m/s, 52° | 169 W/m² | - |
| 1778043225 | 25.56° C | 68% | 1014.8 hPa | 0 mm | 1.79 m/s, 115° | 141 W/m² | - |
| 1778042925 | 25.56° C | 68% | 1014.8 hPa | 0 mm | 1.79 m/s, 129° | 524 W/m² | - |
| 1778042625 | 25.56° C | 69% | 1014.7 hPa | 0 mm | 1.79 m/s, 132° | 454 W/m² | - |
| 1778042325 | 25.56° C | 68% | 1014.7 hPa | 0 mm | 2.24 m/s, 139° | 512 W/m² | - |
| 1778042025 | 26.11° C | 68% | 1014.8 hPa | 0 mm | 2.24 m/s, 114° | 547 W/m² | - |
| 1778041725 | 26.67° C | 67% | 1014.7 hPa | 0 mm | 1.34 m/s, 78° | 163 W/m² | - |
| 1778041425 | 26.67° C | 67% | 1014.8 hPa | 0 mm | 1.34 m/s, 129° | 279 W/m² | - |
| 1778041125 | 26.11° C | 67% | 1014.8 hPa | 0 mm | 1.34 m/s, 151° | 547 W/m² | - |
| 1778040825 | 26.11° C | 66% | 1014.8 hPa | 0 mm | 0.89 m/s, 108° | 624 W/m² | - |
| 1778040525 | 26.11° C | 66% | 1014.8 hPa | 0 mm | 1.34 m/s, 88° | 364 W/m² | - |
| 1778040225 | 26.11° C | 66% | 1014.8 hPa | 0 mm | 1.79 m/s, 117° | 227 W/m² | - |
| 1778039925 | 26.11° C | 65% | 1014.9 hPa | 0 mm | 1.79 m/s, 109° | 250 W/m² | - |
| 1778039625 | 26.11° C | 65% | 1014.8 hPa | 0 mm | 1.34 m/s, 113° | 643 W/m² | - |
| 1778039325 | 26.11° C | 65% | 1014.8 hPa | 0 mm | 0.89 m/s, 121° | 327 W/m² | - |
| 1778039025 | 26.11° C | 66% | 1014.9 hPa | 0 mm | 1.34 m/s, 124° | 316 W/m² | - |
* Rain latest hour (hover to see other rain measurements)
** Current wind speed in m/s (hover to see current wind gust speed)